Gardiner, Oregon
Current Conditions -  °F | °C
As of 3:35 PM on Tuesday 25 Nov 2014 (Local Time) from KOTH Reporting Station
Overcast Overcast  
Wind Chill: 61°   Ceiling: 5000
Heat Index: 61°   Visibility: 10mi
Dew Point: 61°   Wind: 5mph
Humidity: 100%   Direction: 280°W
Pressure: 30.38"   Gusts: NA
Location:  43.73°N, 124.11°W
Report Text: KOTH 252335Z 28004KT 10SM OVC050 16/16 A3038 RMK AO1
Loading
Personal Weather Stations






























Interactive Weather Map New forecast layout! Learn more

10-Day Weather Forecast

Advertisements
Track Severe Weather on mobile